Time;durP1;ratioP1;P1;durP2;ratioP2;P2;SDS_P1;SDS_P2;PMS_P1;PMS_P2;Temp;Humidity;BMP_temperature;BMP_pressure;BME280_temperature;BME280_humidity;BME280_pressure;Samples;Min_cycle;Max_cycle;Signal;HPM_P1;HPM_P2
2023/08/15 00:01:32;;;;;;;7.57;2.67;;;;;;;;;;5059602;28;20148;-62
2023/08/15 00:03:59;;;;;;;5.18;2.15;;;;;;;;;;5056171;28;20453;-62
2023/08/15 00:06:26;;;;;;;9.73;3.45;;;;;;;;;;5060940;28;20053;-62
2023/08/15 00:08:55;;;;;;;10.27;2.80;;;;;;;;;;5061800;28;20518;-62
2023/08/15 00:11:22;;;;;;;4.03;2.42;;;;;;;;;;5060819;28;20064;-61
2023/08/15 00:13:50;;;;;;;8.10;3.35;;;;;;;;;;5059889;28;20061;-60
2023/08/15 00:16:16;;;;;;;6.78;2.50;;;;;;;;;;5061922;28;20507;-61
2023/08/15 00:18:42;;;;;;;6.10;2.65;;;;;;;;;;5062443;28;20109;-62
2023/08/15 00:21:09;;;;;;;5.82;2.35;;;;;;;;;;5062032;28;20199;-63
2023/08/15 00:23:35;;;;;;;9.02;2.80;;;;;;;;;;5061505;28;20931;-61
2023/08/15 00:26:02;;;;;;;5.35;2.47;;;;;;;;;;5054634;28;20568;-62
2023/08/15 00:28:28;;;;;;;6.38;2.88;;;;;;;;;;5055564;28;20049;-61
2023/08/15 00:30:55;;;;;;;8.68;2.95;;;;;;;;;;5062297;28;20458;-61
2023/08/15 00:33:21;;;;;;;6.30;3.20;;;;;;;;;;5059975;28;20144;-63
2023/08/15 00:35:48;;;;;;;5.53;2.53;;;;;;;;;;5061173;28;20049;-60
2023/08/15 00:38:14;;;;;;;6.10;2.90;;;;;;;;;;5061538;28;20059;-62
2023/08/15 00:40:40;;;;;;;4.78;2.35;;;;;;;;;;5061913;28;20061;-61
2023/08/15 00:43:08;;;;;;;7.22;2.65;;;;;;;;;;5062010;28;20172;-60
2023/08/15 00:45:37;;;;;;;7.43;3.25;;;;;;;;;;5061467;28;20055;-60
2023/08/15 00:48:05;;;;;;;11.18;4.00;;;;;;;;;;5061420;28;20201;-59
2023/08/15 00:50:31;;;;;;;6.10;2.90;;;;;;;;;;5062317;28;20049;-62
2023/08/15 00:52:59;;;;;;;6.72;2.78;;;;;;;;;;5061055;28;20049;-63
2023/08/15 00:55:26;;;;;;;7.35;2.78;;;;;;;;;;5061310;28;20053;-62
2023/08/15 00:57:52;;;;;;;3.95;2.33;;;;;;;;;;5061068;28;20549;-61
2023/08/15 01:00:18;;;;;;;6.03;2.40;;;;;;;;;;5053086;28;20089;-62
2023/08/15 01:02:45;;;;;;;5.07;2.40;;;;;;;;;;5054773;28;20144;-60
2023/08/15 01:05:15;;;;;;;3.78;2.05;;;;;;;;;;5055386;28;20057;-62
2023/08/15 01:07:42;;;;;;;10.88;3.08;;;;;;;;;;5055238;28;20049;-61
2023/08/15 01:10:09;;;;;;;5.18;2.30;;;;;;;;;;5061944;28;20669;-60
2023/08/15 01:12:39;;;;;;;6.07;2.50;;;;;;;;;;5060063;28;20484;-62
2023/08/15 01:15:12;;;;;;;6.40;2.72;;;;;;;;;;5061376;28;20543;-61
2023/08/15 01:17:47;;;;;;;3.85;1.85;;;;;;;;;;5065210;28;20499;-60
2023/08/15 01:20:13;;;;;;;;;;;;;;;;;;5068545;28;20064;-61
2023/08/15 01:22:42;;;;;;;11.05;3.28;;;;;;;;;;5066550;28;45700;-63
2023/08/15 01:25:09;;;;;;;5.05;2.00;;;;;;;;;;5065548;28;20495;-63
2023/08/15 01:27:35;;;;;;;5.05;2.15;;;;;;;;;;5066910;28;20045;-59
2023/08/15 01:30:02;;;;;;;6.60;2.10;;;;;;;;;;5066397;28;20103;-61
2023/08/15 01:32:47;;;;;;;6.15;2.42;;;;;;;;;;5066278;28;20229;-61
2023/08/15 01:35:16;;;;;;;4.47;2.25;;;;;;;;;;5066399;28;20072;-63
2023/08/15 01:37:44;;;;;;;7.85;2.35;;;;;;;;;;5066576;28;20059;-60
2023/08/15 01:40:15;;;;;;;5.22;1.83;;;;;;;;;;5065173;28;20124;-62
2023/08/15 01:42:41;;;;;;;7.63;2.10;;;;;;;;;;5064454;28;20537;-62
2023/08/15 01:45:08;;;;;;;4.05;2.22;;;;;;;;;;5064607;28;20072;-60
2023/08/15 01:47:35;;;;;;;4.60;2.33;;;;;;;;;;5064441;28;20064;-61
2023/08/15 01:50:02;;;;;;;6.85;2.20;;;;;;;;;;5065400;28;20426;-62
2023/08/15 01:52:28;;;;;;;6.13;2.35;;;;;;;;;;5064037;28;20064;-62
2023/08/15 01:54:55;;;;;;;8.07;2.22;;;;;;;;;;5063096;28;20095;-60
2023/08/15 01:57:21;;;;;;;5.38;2.00;;;;;;;;;;5063931;28;20060;-62
2023/08/15 01:59:48;;;;;;;7.53;2.50;;;;;;;;;;5064809;28;20057;-61
2023/08/15 02:02:14;;;;;;;7.75;2.10;;;;;;;;;;5064217;28;20106;-62
2023/08/15 02:04:41;;;;;;;5.85;2.15;;;;;;;;;;5063640;28;20061;-61
2023/08/15 02:07:07;;;;;;;4.15;1.88;;;;;;;;;;5062913;28;20140;-60
2023/08/15 02:09:34;;;;;;;5.72;1.98;;;;;;;;;;5064391;28;20110;-61
2023/08/15 02:12:00;;;;;;;5.80;1.88;;;;;;;;;;5064161;28;20053;-60
2023/08/15 02:14:27;;;;;;;4.30;1.88;;;;;;;;;;5062704;28;20462;-62
2023/08/15 02:16:53;;;;;;;5.20;1.90;;;;;;;;;;5064349;28;20517;-62
2023/08/15 02:19:19;;;;;;;4.72;1.77;;;;;;;;;;5063773;28;20049;-61
2023/08/15 02:21:46;;;;;;;5.88;1.80;;;;;;;;;;5064663;28;20491;-62
2023/08/15 02:24:12;;;;;;;9.88;2.00;;;;;;;;;;5064113;28;20060;-62
2023/08/15 02:26:39;;;;;;;8.95;2.45;;;;;;;;;;5060359;28;20053;-60
2023/08/15 02:29:05;;;;;;;6.97;1.80;;;;;;;;;;5060950;28;20045;-62
2023/08/15 02:31:32;;;;;;;5.75;1.90;;;;;;;;;;5064025;28;20557;-62
2023/08/15 02:33:58;;;;;;;10.88;2.17;;;;;;;;;;5055364;28;20060;-62
2023/08/15 02:36:24;;;;;;;6.28;2.13;;;;;;;;;;5062278;28;20092;-62
2023/08/15 02:38:51;;;;;;;5.75;2.15;;;;;;;;;;5061171;28;20053;-62
2023/08/15 02:41:17;;;;;;;7.70;2.08;;;;;;;;;;5059020;28;20092;-61
2023/08/15 02:43:44;;;;;;;7.40;2.38;;;;;;;;;;5055439;28;20529;-63
2023/08/15 02:46:10;;;;;;;8.82;2.15;;;;;;;;;;5064485;28;20131;-60
2023/08/15 02:48:37;;;;;;;5.95;2.08;;;;;;;;;;5063693;28;20762;-62
2023/08/15 02:51:03;;;;;;;8.35;2.35;;;;;;;;;;5063018;28;20103;-63
2023/08/15 02:53:31;;;;;;;5.97;2.05;;;;;;;;;;5062912;28;20057;-61
2023/08/15 02:55:57;;;;;;;6.47;1.90;;;;;;;;;;5061761;28;20084;-62
2023/08/15 02:58:24;;;;;;;6.55;2.53;;;;;;;;;;5062857;28;20134;-62
2023/08/15 03:00:50;;;;;;;6.63;2.17;;;;;;;;;;5053845;28;20132;-61
2023/08/15 03:03:16;;;;;;;9.23;2.25;;;;;;;;;;5062248;28;20049;-60
2023/08/15 03:05:43;;;;;;;4.40;1.65;;;;;;;;;;5061511;28;20057;-61
2023/08/15 03:08:10;;;;;;;6.07;2.15;;;;;;;;;;5062962;28;20566;-62
2023/08/15 03:10:39;;;;;;;5.70;2.03;;;;;;;;;;5063740;28;20107;-62
2023/08/15 03:13:05;;;;;;;7.70;2.47;;;;;;;;;;5062308;28;20549;-62
2023/08/15 03:15:32;;;;;;;6.60;2.88;;;;;;;;;;5063114;28;20803;-61
2023/08/15 03:17:58;;;;;;;6.85;2.50;;;;;;;;;;5062759;28;20145;-62
2023/08/15 03:20:25;;;;;;;4.20;2.22;;;;;;;;;;5061965;28;20096;-60
2023/08/15 03:22:52;;;;;;;7.45;1.90;;;;;;;;;;5063261;28;20519;-62
2023/08/15 03:25:18;;;;;;;6.72;2.10;;;;;;;;;;5062774;28;20223;-60
2023/08/15 03:27:44;;;;;;;6.78;2.20;;;;;;;;;;5061910;28;20502;-62
2023/08/15 03:30:11;;;;;;;8.45;2.58;;;;;;;;;;5062772;28;20143;-63
2023/08/15 03:32:37;;;;;;;8.30;2.13;;;;;;;;;;5054985;28;20069;-60
2023/08/15 03:35:04;;;;;;;4.80;2.00;;;;;;;;;;5061357;28;20061;-59
2023/08/15 03:37:31;;;;;;;8.65;2.75;;;;;;;;;;5062052;28;20057;-61
2023/08/15 03:39:57;;;;;;;8.43;2.40;;;;;;;;;;5060958;28;20076;-62
2023/08/15 03:42:24;;;;;;;4.82;2.20;;;;;;;;;;5062101;28;20439;-62
2023/08/15 03:44:50;;;;;;;5.38;1.98;;;;;;;;;;5062611;28;20064;-63
2023/08/15 03:47:16;;;;;;;7.15;2.38;;;;;;;;;;5063645;28;20059;-62
2023/08/15 03:49:43;;;;;;;6.72;2.67;;;;;;;;;;5053834;28;20060;-63
2023/08/15 03:52:10;;;;;;;8.35;2.67;;;;;;;;;;5045083;28;20603;-62
2023/08/15 03:54:37;;;;;;;9.20;2.25;;;;;;;;;;5062239;28;20087;-62
2023/08/15 03:57:03;;;;;;;11.60;2.92;;;;;;;;;;5067070;28;20561;-63
2023/08/15 03:59:30;;;;;;;4.32;2.28;;;;;;;;;;5061873;28;20487;-61
2023/08/15 04:01:56;;;;;;;6.38;2.70;;;;;;;;;;5068027;28;20063;-63
2023/08/15 04:04:24;;;;;;;7.25;2.45;;;;;;;;;;5061711;28;20500;-61
2023/08/15 04:06:51;;;;;;;9.25;2.60;;;;;;;;;;5062853;28;20049;-62
2023/08/15 04:09:17;;;;;;;10.18;2.97;;;;;;;;;;5062313;28;20053;-60
2023/08/15 04:11:44;;;;;;;7.97;2.45;;;;;;;;;;5061134;28;20053;-61
2023/08/15 04:14:10;;;;;;;7.53;2.95;;;;;;;;;;5058637;28;20057;-62
2023/08/15 04:16:38;;;;;;;9.73;3.08;;;;;;;;;;5045075;28;20100;-62
2023/08/15 04:19:05;;;;;;;5.57;2.50;;;;;;;;;;5063606;28;20053;-62
2023/08/15 04:21:31;;;;;;;11.35;3.20;;;;;;;;;;5062382;28;20064;-63
2023/08/15 04:23:57;;;;;;;7.35;3.00;;;;;;;;;;5056759;28;20057;-62
2023/08/15 04:26:24;;;;;;;11.13;2.65;;;;;;;;;;5053825;28;20438;-62
2023/08/15 04:28:50;;;;;;;6.88;3.22;;;;;;;;;;5042352;28;20438;-63
2023/08/15 04:31:17;;;;;;;11.27;3.10;;;;;;;;;;5050169;28;20152;-60
2023/08/15 04:33:43;;;;;;;6.90;2.70;;;;;;;;;;5062006;28;20049;-62
2023/08/15 04:36:10;;;;;;;9.27;3.05;;;;;;;;;;5060275;28;20057;-60
2023/08/15 04:38:36;;;;;;;9.60;3.13;;;;;;;;;;5053952;28;20064;-63
2023/08/15 04:41:04;;;;;;;6.53;3.63;;;;;;;;;;5060732;28;20048;-62
2023/08/15 04:43:30;;;;;;;9.27;3.25;;;;;;;;;;5047829;28;20160;-60
2023/08/15 04:45:57;;;;;;;7.03;2.90;;;;;;;;;;5054262;28;20104;-63
2023/08/15 04:48:23;;;;;;;7.80;2.85;;;;;;;;;;5059883;28;20741;-62
2023/08/15 04:50:50;;;;;;;9.50;3.47;;;;;;;;;;5062179;28;20139;-62
2023/08/15 04:53:17;;;;;;;10.60;3.28;;;;;;;;;;5065256;28;20053;-62
2023/08/15 04:55:44;;;;;;;6.43;3.10;;;;;;;;;;5065228;28;20592;-62
2023/08/15 04:58:10;;;;;;;15.57;4.03;;;;;;;;;;5064953;28;20053;-61
2023/08/15 05:00:37;;;;;;;14.48;3.67;;;;;;;;;;5063400;28;20788;-60
2023/08/15 05:03:03;;;;;;;10.27;3.47;;;;;;;;;;5063777;28;20053;-63
2023/08/15 05:05:30;;;;;;;8.63;3.05;;;;;;;;;;5055720;28;20049;-62
2023/08/15 05:07:57;;;;;;;8.05;3.15;;;;;;;;;;5058297;28;20059;-62
2023/08/15 05:10:23;;;;;;;10.63;3.22;;;;;;;;;;5065275;28;20152;-61
2023/08/15 05:12:49;;;;;;;8.48;2.78;;;;;;;;;;5064510;28;20103;-61
2023/08/15 05:15:16;;;;;;;7.38;3.08;;;;;;;;;;5063119;28;20744;-63
2023/08/15 05:17:43;;;;;;;11.40;2.83;;;;;;;;;;5054367;28;20167;-61
2023/08/15 05:20:10;;;;;;;8.20;3.08;;;;;;;;;;5060718;28;20041;-63
2023/08/15 05:22:37;;;;;;;10.48;3.25;;;;;;;;;;5050300;28;20057;-60
2023/08/15 05:25:04;;;;;;;7.95;2.88;;;;;;;;;;5062314;28;20486;-63
2023/08/15 05:27:30;;;;;;;6.57;3.08;;;;;;;;;;5057833;28;20050;-61
2023/08/15 05:29:57;;;;;;;9.55;3.60;;;;;;;;;;5055078;28;20514;-62
2023/08/15 05:32:24;;;;;;;12.30;3.53;;;;;;;;;;5056845;28;20913;-61
2023/08/15 05:34:50;;;;;;;11.88;3.08;;;;;;;;;;5054372;28;20081;-61
2023/08/15 05:37:16;;;;;;;10.23;3.35;;;;;;;;;;5060820;28;20140;-63
2023/08/15 05:39:44;;;;;;;8.23;3.25;;;;;;;;;;5064342;28;20550;-63
2023/08/15 05:42:17;;;;;;;13.82;3.85;;;;;;;;;;5066064;28;20060;-61
2023/08/15 05:44:45;;;;;;;8.52;3.38;;;;;;;;;;5063948;28;20045;-61
2023/08/15 05:47:12;;;;;;;8.85;3.08;;;;;;;;;;5060112;28;20111;-61
2023/08/15 05:49:39;;;;;;;11.13;3.40;;;;;;;;;;5077431;28;20507;-61
2023/08/15 05:52:05;;;;;;;12.43;3.08;;;;;;;;;;5073013;28;20061;-62
2023/08/15 05:54:32;;;;;;;10.18;3.25;;;;;;;;;;5065423;28;20472;-61
2023/08/15 05:56:58;;;;;;;16.98;3.70;;;;;;;;;;5062976;28;20057;-61
2023/08/15 05:59:24;;;;;;;11.68;4.00;;;;;;;;;;5060036;28;20053;-59
2023/08/15 06:01:51;;;;;;;8.80;3.10;;;;;;;;;;5064074;28;20065;-62
2023/08/15 06:04:17;;;;;;;7.68;2.90;;;;;;;;;;5067725;28;20061;-58
2023/08/15 06:06:44;;;;;;;13.95;3.38;;;;;;;;;;5061798;28;20492;-60
2023/08/15 06:09:10;;;;;;;15.68;3.92;;;;;;;;;;5063963;28;20585;-61
2023/08/15 06:11:37;;;;;;;6.97;2.80;;;;;;;;;;5063674;28;20591;-62
2023/08/15 06:14:03;;;;;;;9.98;4.68;;;;;;;;;;5058891;28;20088;-62
2023/08/15 06:16:30;;;;;;;9.50;3.50;;;;;;;;;;5063833;28;20084;-62
2023/08/15 06:18:56;;;;;;;5.10;2.70;;;;;;;;;;5063505;28;20136;-62
2023/08/15 06:21:23;;;;;;;13.50;3.72;;;;;;;;;;5070662;28;20360;-60
2023/08/15 06:23:49;;;;;;;10.75;3.53;;;;;;;;;;5062678;28;20115;-61
2023/08/15 06:26:15;;;;;;;10.93;3.10;;;;;;;;;;5055214;28;20590;-61
2023/08/15 06:28:42;;;;;;;7.95;2.83;;;;;;;;;;5064256;28;20056;-62
2023/08/15 06:31:09;;;;;;;11.85;3.58;;;;;;;;;;5063508;28;20503;-61
2023/08/15 06:33:35;;;;;;;9.30;3.10;;;;;;;;;;5062861;28;20161;-62
2023/08/15 06:36:02;;;;;;;10.15;3.47;;;;;;;;;;5064209;28;20059;-62
2023/08/15 06:38:28;;;;;;;14.82;4.72;;;;;;;;;;5063775;28;20496;-60
2023/08/15 06:40:54;;;;;;;10.43;3.38;;;;;;;;;;5071592;28;20509;-62
2023/08/15 06:43:21;;;;;;;13.98;4.15;;;;;;;;;;5061246;28;20053;-61
2023/08/15 06:45:47;;;;;;;13.88;3.67;;;;;;;;;;5063239;28;20080;-60
2023/08/15 06:48:14;;;;;;;9.13;3.42;;;;;;;;;;5064399;28;20455;-62
2023/08/15 06:50:41;;;;;;;13.07;3.25;;;;;;;;;;5064163;28;20061;-62
2023/08/15 06:53:08;;;;;;;11.98;3.38;;;;;;;;;;5063870;28;20875;-61
2023/08/15 06:55:34;;;;;;;11.52;3.60;;;;;;;;;;5062110;28;20118;-61
2023/08/15 06:58:01;;;;;;;7.47;3.00;;;;;;;;;;5060211;28;20546;-62
2023/08/15 07:00:27;;;;;;;12.18;3.65;;;;;;;;;;5061148;28;20065;-62
2023/08/15 07:02:54;;;;;;;8.52;2.90;;;;;;;;;;5060419;28;20077;-62
2023/08/15 07:05:20;;;;;;;12.48;3.20;;;;;;;;;;5061515;28;20323;-61
2023/08/15 07:07:47;;;;;;;11.18;3.20;;;;;;;;;;5059694;28;20049;-62
2023/08/15 07:10:14;;;;;;;8.90;2.85;;;;;;;;;;5065302;28;20053;-60
2023/08/15 07:12:40;;;;;;;12.35;3.20;;;;;;;;;;5065750;28;20064;-62
2023/08/15 07:15:10;;;;;;;15.10;3.78;;;;;;;;;;5064993;28;20108;-62
2023/08/15 07:17:37;;;;;;;12.52;3.85;;;;;;;;;;5059835;28;20684;-62
2023/08/15 07:20:05;;;;;;;10.02;3.17;;;;;;;;;;5060645;28;20703;-61
2023/08/15 07:22:32;;;;;;;9.52;3.13;;;;;;;;;;5063478;28;20057;-61
2023/08/15 07:24:58;;;;;;;14.57;3.05;;;;;;;;;;5061764;28;20138;-60
2023/08/15 07:27:25;;;;;;;10.57;3.47;;;;;;;;;;5064188;28;20049;-63
2023/08/15 07:29:51;;;;;;;7.85;2.60;;;;;;;;;;5063872;28;20138;-60
2023/08/15 07:32:17;;;;;;;10.98;3.30;;;;;;;;;;5063309;28;20071;-58
2023/08/15 07:34:45;;;;;;;18.92;4.80;;;;;;;;;;5063041;28;20059;-60
2023/08/15 07:37:19;;;;;;;10.95;2.60;;;;;;;;;;5061201;28;20053;-58
2023/08/15 07:39:55;;;;;;;9.73;3.05;;;;;;;;;;5033531;28;20941;-61
2023/08/15 07:42:21;;;;;;;15.48;4.05;;;;;;;;;;5042732;28;20143;-62
2023/08/15 07:44:48;;;;;;;17.05;3.17;;;;;;;;;;5033513;28;20081;-60
2023/08/15 07:47:14;;;;;;;12.10;3.90;;;;;;;;;;5040160;28;20132;-60
2023/08/15 07:49:41;;;;;;;12.05;4.05;;;;;;;;;;5042389;28;20416;-62
2023/08/15 07:52:08;;;;;;;9.43;3.63;;;;;;;;;;5042532;28;20100;-62
2023/08/15 07:54:34;;;;;;;12.07;4.25;;;;;;;;;;5042320;28;20062;-59
2023/08/15 07:57:01;;;;;;;9.20;4.00;;;;;;;;;;5050191;28;20049;-62
2023/08/15 07:59:27;;;;;;;12.48;4.20;;;;;;;;;;5047533;28;20170;-62
2023/08/15 08:01:54;;;;;;;8.77;4.28;;;;;;;;;;5040663;28;20049;-60
2023/08/15 08:04:20;;;;;;;10.52;4.22;;;;;;;;;;5047077;28;20068;-61
2023/08/15 08:06:48;;;;;;;10.93;4.95;;;;;;;;;;5039834;28;20053;-62
2023/08/15 08:09:15;;;;;;;10.75;5.07;;;;;;;;;;5043795;28;20059;-60
2023/08/15 08:11:42;;;;;;;11.07;4.70;;;;;;;;;;5047195;28;20194;-61
2023/08/15 08:14:08;;;;;;;9.23;4.97;;;;;;;;;;5042006;28;20064;-62
2023/08/15 08:16:34;;;;;;;11.82;5.03;;;;;;;;;;5039922;28;20073;-60
2023/08/15 08:19:01;;;;;;;8.25;4.07;;;;;;;;;;5044933;28;20536;-61
2023/08/15 08:21:27;;;;;;;8.57;4.18;;;;;;;;;;5052576;28;20567;-62
2023/08/15 08:23:54;;;;;;;8.40;3.60;;;;;;;;;;5041904;28;20240;-60
2023/08/15 08:26:20;;;;;;;7.65;3.72;;;;;;;;;;5044605;28;20134;-62
2023/08/15 08:28:46;;;;;;;9.30;3.65;;;;;;;;;;5045402;28;20073;-61
2023/08/15 08:31:13;;;;;;;11.65;4.28;;;;;;;;;;5041446;28;20083;-62
2023/08/15 08:33:39;;;;;;;9.90;3.30;;;;;;;;;;5040728;28;20118;-61
2023/08/15 08:36:06;;;;;;;7.18;3.30;;;;;;;;;;5040737;28;20065;-61
2023/08/15 08:38:32;;;;;;;7.18;2.88;;;;;;;;;;5040649;28;20053;-61
2023/08/15 08:40:59;;;;;;;5.40;2.60;;;;;;;;;;5040771;28;20081;-61
2023/08/15 08:43:28;;;;;;;11.30;3.30;;;;;;;;;;5039207;28;20054;-63
2023/08/15 08:45:57;;;;;;;10.50;3.20;;;;;;;;;;5040805;28;20053;-61
2023/08/15 08:48:23;;;;;;;7.70;2.75;;;;;;;;;;5040440;28;20060;-61
2023/08/15 08:50:51;;;;;;;7.20;3.38;;;;;;;;;;5040857;28;20405;-61
2023/08/15 08:53:17;;;;;;;6.22;3.05;;;;;;;;;;5040736;28;20065;-61
2023/08/15 08:55:46;;;;;;;9.68;3.38;;;;;;;;;;5041210;28;20496;-62
2023/08/15 08:58:13;;;;;;;10.50;4.10;;;;;;;;;;5050606;28;20064;-62
2023/08/15 09:00:40;;;;;;;11.70;4.57;;;;;;;;;;5039995;28;20111;-62
2023/08/15 09:03:07;;;;;;;11.32;4.70;;;;;;;;;;5050778;28;20053;-61
2023/08/15 09:05:34;;;;;;;10.98;5.50;;;;;;;;;;5034937;28;20054;-60
2023/08/15 09:08:01;;;;;;;11.93;6.90;;;;;;;;;;5041384;28;20483;-60
2023/08/15 09:10:28;;;;;;;11.55;7.30;;;;;;;;;;5040401;28;20164;-61
2023/08/15 09:12:59;;;;;;;13.70;6.28;;;;;;;;;;5045122;28;20507;-61
2023/08/15 09:15:26;;;;;;;10.90;7.15;;;;;;;;;;5038106;28;20428;-60
2023/08/15 09:18:00;;;;;;;11.85;7.28;;;;;;;;;;5037395;28;20042;-59
2023/08/15 09:20:27;;;;;;;10.97;7.00;;;;;;;;;;5040232;28;20501;-60
2023/08/15 09:22:57;;;;;;;10.93;6.07;;;;;;;;;;5037105;28;20175;-62
2023/08/15 09:25:25;;;;;;;13.10;7.18;;;;;;;;;;5039345;28;20507;-60
2023/08/15 09:27:53;;;;;;;7.82;5.72;;;;;;;;;;5029963;28;20508;-61
2023/08/15 09:30:21;;;;;;;13.15;6.45;;;;;;;;;;5031495;28;20054;-59
2023/08/15 09:32:48;;;;;;;11.63;5.78;;;;;;;;;;5039319;28;20504;-57
2023/08/15 09:35:15;;;;;;;11.13;5.90;;;;;;;;;;5039657;28;20053;-61
2023/08/15 09:37:46;;;;;;;11.85;6.78;;;;;;;;;;5041353;28;20540;-60
2023/08/15 09:40:22;;;;;;;7.93;6.75;;;;;;;;;;5035837;28;20057;-60
2023/08/15 09:42:49;;;;;;;10.30;6.55;;;;;;;;;;5036554;28;20060;-60
2023/08/15 09:45:16;;;;;;;12.00;6.80;;;;;;;;;;5041830;28;20060;-59
2023/08/15 09:47:43;;;;;;;10.98;6.22;;;;;;;;;;5044002;28;20061;-62
2023/08/15 09:50:11;;;;;;;12.43;7.68;;;;;;;;;;5042975;28;20074;-60
2023/08/15 09:52:42;;;;;;;9.40;7.10;;;;;;;;;;5043335;28;20140;-60
2023/08/15 09:55:09;;;;;;;10.60;7.35;;;;;;;;;;5043527;28;20056;-58
2023/08/15 09:57:37;;;;;;;8.25;5.88;;;;;;;;;;5041193;28;20053;-62
2023/08/15 10:00:04;;;;;;;13.23;6.80;;;;;;;;;;5041931;28;20135;-61
2023/08/15 10:02:31;;;;;;;8.85;5.35;;;;;;;;;;5049356;28;20056;-61
2023/08/15 10:05:02;;;;;;;7.82;5.00;;;;;;;;;;5044466;28;20109;-62
2023/08/15 10:07:32;;;;;;;9.90;5.57;;;;;;;;;;5042728;28;20061;-62
2023/08/15 10:10:01;;;;;;;6.88;4.57;;;;;;;;;;5042781;28;20061;-60
2023/08/15 10:12:28;;;;;;;11.93;5.88;;;;;;;;;;5049629;28;20060;-62
2023/08/15 10:14:56;;;;;;;12.30;4.80;;;;;;;;;;5042813;28;20053;-60
2023/08/15 10:17:23;;;;;;;8.13;5.15;;;;;;;;;;5042956;28;20157;-61
2023/08/15 10:19:51;;;;;;;6.93;4.78;;;;;;;;;;5036305;28;20054;-61
2023/08/15 10:22:18;;;;;;;7.72;4.85;;;;;;;;;;5034535;28;20058;-61
2023/08/15 10:24:46;;;;;;;11.75;5.65;;;;;;;;;;5039411;28;20048;-60
2023/08/15 10:27:14;;;;;;;7.07;5.22;;;;;;;;;;5041385;28;20131;-61
2023/08/15 10:29:59;;;;;;;13.55;6.28;;;;;;;;;;5043451;28;20053;-61
2023/08/15 10:32:26;;;;;;;;;;;;;;;;;;5042365;28;20058;-61
2023/08/15 10:34:54;;;;;;;9.57;5.40;;;;;;;;;;5041939;28;45293;-61
2023/08/15 10:37:31;;;;;;;8.18;4.88;;;;;;;;;;5044129;28;20483;-61
2023/08/15 10:40:08;;;;;;;10.73;5.65;;;;;;;;;;5041606;28;20135;-60
2023/08/15 10:42:53;;;;;;;8.20;5.18;;;;;;;;;;5042397;28;20519;-59
2023/08/15 10:45:19;;;;;;;11.68;4.70;;;;;;;;;;5042628;28;20045;-61
2023/08/15 10:47:46;;;;;;;6.85;4.30;;;;;;;;;;5045203;28;20057;-60
2023/08/15 10:50:12;;;;;;;10.40;4.45;;;;;;;;;;5042262;28;20077;-61
2023/08/15 10:52:39;;;;;;;7.68;3.88;;;;;;;;;;5041081;28;20458;-60
2023/08/15 10:55:05;;;;;;;9.30;4.97;;;;;;;;;;5042931;28;20053;-60
2023/08/15 10:57:32;;;;;;;8.93;4.10;;;;;;;;;;5042833;28;20152;-62
2023/08/15 11:00:00;;;;;;;9.73;4.55;;;;;;;;;;5041117;28;20445;-62
2023/08/15 11:02:27;;;;;;;11.10;3.70;;;;;;;;;;5042271;28;20049;-60
2023/08/15 11:08:13;;;;;;;8.18;3.42;;;;;;;;;;5039680;28;20057;-60
2023/08/15 11:10:43;;;;;;;12.23;4.57;;;;;;;;;;5035285;28;20053;-61
2023/08/15 11:13:10;;;;;;;8.13;4.50;;;;;;;;;;5041196;28;20085;-60
2023/08/15 11:15:37;;;;;;;7.55;3.83;;;;;;;;;;5043211;28;20514;-61
2023/08/15 11:18:03;;;;;;;6.00;3.38;;;;;;;;;;5037289;28;20295;-59
2023/08/15 11:20:30;;;;;;;10.52;3.75;;;;;;;;;;5041955;28;20061;-60
2023/08/15 11:22:57;;;;;;;9.95;3.42;;;;;;;;;;5041570;28;20138;-60
2023/08/15 11:25:24;;;;;;;7.30;3.42;;;;;;;;;;5041587;28;20141;-59
2023/08/15 11:27:50;;;;;;;10.95;3.50;;;;;;;;;;5039343;28;20107;-60
2023/08/15 11:30:17;;;;;;;6.50;2.70;;;;;;;;;;5046058;28;20195;-60
2023/08/15 11:32:44;;;;;;;5.97;2.60;;;;;;;;;;5041793;28;20595;-60
2023/08/15 11:35:11;;;;;;;5.85;3.05;;;;;;;;;;5041910;28;20088;-60
2023/08/15 11:37:38;;;;;;;6.85;3.00;;;;;;;;;;5040476;28;20515;-61
2023/08/15 11:40:05;;;;;;;9.93;2.50;;;;;;;;;;5039909;28;20055;-59
2023/08/15 11:42:33;;;;;;;7.47;2.85;;;;;;;;;;5046456;28;20563;-60
2023/08/15 11:45:20;;;;;;;10.63;2.38;;;;;;;;;;5042672;28;20049;-61
2023/08/15 11:47:56;;;;;;;6.72;2.63;;;;;;;;;;5041008;28;20107;-60
2023/08/15 11:50:30;;;;;;;13.63;3.22;;;;;;;;;;5039540;28;20123;-62
2023/08/15 11:53:14;;;;;;;8.55;2.70;;;;;;;;;;5039132;28;20045;-60
2023/08/15 11:55:41;;;;;;;8.85;3.55;;;;;;;;;;5026144;28;20053;-61
2023/08/15 11:58:24;;;;;;;5.10;2.30;;;;;;;;;;5040895;28;20551;-59
2023/08/15 12:00:51;;;;;;;7.70;2.55;;;;;;;;;;5033556;28;20058;-62
2023/08/15 12:03:18;;;;;;;11.98;2.97;;;;;;;;;;5030006;28;20582;-59
2023/08/15 12:05:46;;;;;;;9.93;3.15;;;;;;;;;;5034855;28;20103;-61
2023/08/15 12:08:14;;;;;;;5.10;2.70;;;;;;;;;;5030783;28;20064;-62
2023/08/15 12:10:40;;;;;;;9.73;2.85;;;;;;;;;;5040647;28;20084;-63
2023/08/15 12:13:07;;;;;;;8.10;2.58;;;;;;;;;;5041132;28;20185;-62
2023/08/15 12:15:34;;;;;;;8.48;2.67;;;;;;;;;;5034455;28;20054;-60
2023/08/15 12:18:01;;;;;;;5.22;2.55;;;;;;;;;;5035883;28;20060;-61
2023/08/15 12:20:27;;;;;;;5.60;2.83;;;;;;;;;;5040024;28;20061;-60
2023/08/15 12:22:54;;;;;;;3.85;1.92;;;;;;;;;;5033945;28;20049;-61
2023/08/15 12:25:21;;;;;;;7.50;2.75;;;;;;;;;;5040719;28;20056;-62
2023/08/15 12:27:47;;;;;;;7.35;3.35;;;;;;;;;;5040763;28;20144;-58
2023/08/15 12:30:14;;;;;;;8.07;3.10;;;;;;;;;;5041795;28;20058;-59
2023/08/15 12:32:43;;;;;;;3.45;3.08;;;;;;;;;;5039815;28;21318;-61
2023/08/15 12:35:09;;;;;;;6.43;3.15;;;;;;;;;;5033684;28;20092;-60
2023/08/15 12:37:36;;;;;;;6.13;3.25;;;;;;;;;;5041408;28;20116;-59
2023/08/15 12:40:03;;;;;;;4.35;2.75;;;;;;;;;;5028713;28;20076;-60
2023/08/15 12:42:35;;;;;;;4.60;2.95;;;;;;;;;;5041147;28;20415;-59
2023/08/15 12:45:02;;;;;;;3.80;2.47;;;;;;;;;;5041100;28;20457;-61
2023/08/15 12:47:29;;;;;;;6.80;2.20;;;;;;;;;;5039519;28;20054;-61
2023/08/15 12:49:56;;;;;;;4.10;1.60;;;;;;;;;;5039550;28;20054;-59
2023/08/15 12:52:23;;;;;;;3.25;1.80;;;;;;;;;;5041190;28;20050;-62
2023/08/15 12:54:49;;;;;;;3.45;1.50;;;;;;;;;;5046412;28;20503;-61
2023/08/15 12:57:16;;;;;;;3.03;1.25;;;;;;;;;;5043261;28;20064;-61
2023/08/15 12:59:43;;;;;;;3.17;1.58;;;;;;;;;;5037376;28;20050;-59
2023/08/15 13:02:13;;;;;;;1.50;1.40;;;;;;;;;;5044413;28;20061;-61
2023/08/15 13:04:39;;;;;;;4.90;1.70;;;;;;;;;;5040865;28;20041;-60
2023/08/15 13:07:06;;;;;;;1.65;1.55;;;;;;;;;;5038477;28;20200;-61
2023/08/15 13:09:32;;;;;;;3.58;1.73;;;;;;;;;;5043020;28;20132;-59
2023/08/15 13:11:59;;;;;;;2.90;1.60;;;;;;;;;;5045408;28;20057;-61
2023/08/15 13:14:25;;;;;;;1.50;1.40;;;;;;;;;;5046284;28;20057;-61
2023/08/15 13:17:02;;;;;;;2.65;1.60;;;;;;;;;;5045943;28;20053;-61
2023/08/15 13:19:33;;;;;;;2.22;1.58;;;;;;;;;;5045894;28;20063;-61
2023/08/15 13:22:00;;;;;;;1.70;1.60;;;;;;;;;;5046286;28;20049;-60
2023/08/15 13:24:26;;;;;;;1.80;1.70;;;;;;;;;;5047496;28;20060;-62
2023/08/15 13:26:53;;;;;;;2.75;2.17;;;;;;;;;;5061279;28;20523;-61
2023/08/15 13:29:19;;;;;;;5.13;2.20;;;;;;;;;;5042863;28;20529;-62
2023/08/15 13:31:45;;;;;;;2.17;1.70;;;;;;;;;;5044635;28;20137;-60
2023/08/15 13:34:12;;;;;;;2.40;1.52;;;;;;;;;;5056828;28;20111;-59
2023/08/15 13:36:38;;;;;;;1.50;1.27;;;;;;;;;;5045750;28;20600;-62
2023/08/15 13:39:07;;;;;;;2.17;1.70;;;;;;;;;;5043033;28;20054;-60
2023/08/15 13:41:33;;;;;;;1.75;1.60;;;;;;;;;;5043468;28;20053;-61
2023/08/15 13:44:00;;;;;;;2.55;1.70;;;;;;;;;;5043481;28;20072;-60
2023/08/15 13:46:27;;;;;;;4.35;1.85;;;;;;;;;;5038020;28;20141;-63
2023/08/15 13:48:53;;;;;;;2.13;1.60;;;;;;;;;;5037656;28;20058;-61
2023/08/15 13:51:20;;;;;;;2.53;1.45;;;;;;;;;;5044252;28;20046;-61
2023/08/15 13:53:47;;;;;;;2.20;1.67;;;;;;;;;;5042998;28;20092;-60
2023/08/15 13:56:14;;;;;;;1.98;1.40;;;;;;;;;;5046442;28;20063;-63
2023/08/15 13:58:42;;;;;;;3.45;1.42;;;;;;;;;;5042436;28;20144;-60
2023/08/15 14:01:08;;;;;;;3.42;1.30;;;;;;;;;;5042668;28;20496;-61
2023/08/15 14:03:35;;;;;;;3.13;1.52;;;;;;;;;;5043294;28;20065;-62
2023/08/15 14:06:07;;;;;;;3.78;1.38;;;;;;;;;;5044777;28;20101;-62
2023/08/15 14:08:34;;;;;;;1.70;1.17;;;;;;;;;;5041833;28;20053;-60
2023/08/15 14:11:02;;;;;;;3.90;1.42;;;;;;;;;;5043392;28;20046;-61
2023/08/15 14:13:29;;;;;;;4.00;1.73;;;;;;;;;;5044437;28;20054;-60
2023/08/15 14:15:55;;;;;;;2.05;1.45;;;;;;;;;;5042260;28;20420;-61
2023/08/15 14:18:22;;;;;;;2.60;1.30;;;;;;;;;;5045697;28;20508;-60
2023/08/15 14:20:48;;;;;;;3.83;1.42;;;;;;;;;;5047591;28;20140;-61
2023/08/15 14:23:16;;;;;;;1.75;1.52;;;;;;;;;;5047940;28;20149;-60
2023/08/15 14:25:43;;;;;;;3.03;1.30;;;;;;;;;;5050818;28;20050;-61
2023/08/15 14:28:09;;;;;;;2.08;1.33;;;;;;;;;;5049213;28;20538;-61
2023/08/15 14:30:36;;;;;;;3.85;1.75;;;;;;;;;;5040237;28;20065;-62
2023/08/15 14:33:02;;;;;;;2.75;1.33;;;;;;;;;;5035930;28;20393;-60
2023/08/15 14:35:31;;;;;;;5.78;1.52;;;;;;;;;;5031434;28;20488;-60
2023/08/15 14:37:57;;;;;;;3.75;1.70;;;;;;;;;;5043998;28;20533;-62
2023/08/15 14:40:24;;;;;;;1.75;1.33;;;;;;;;;;5042205;28;20058;-61
2023/08/15 14:42:50;;;;;;;4.57;1.58;;;;;;;;;;5040160;28;20049;-61
2023/08/15 14:45:17;;;;;;;2.58;1.30;;;;;;;;;;5031560;28;20091;-60